Time;durP1;ratioP1;P1;durP2;ratioP2;P2;SDS_P1;SDS_P2;PMS_P1;PMS_P2;Temp;Humidity;BMP_temperature;BMP_pressure;BME280_temperature;BME280_humidity;BME280_pressure;Samples;Min_cycle;Max_cycle;Signal;HPM_P1;HPM_P2
2022/11/16 00:01:55;;;;;;;0.57;0.10;;;12.90;99.90;;;;;;4939027;29;20503;-75
2022/11/16 00:04:23;;;;;;;0.50;0.10;;;12.80;99.90;;;;;;4940917;29;20515;-75
2022/11/16 00:06:51;;;;;;;0.50;0.10;;;12.80;99.90;;;;;;4939597;29;20950;-75
2022/11/16 00:09:22;;;;;;;0.50;0.10;;;12.80;99.90;;;;;;4940566;29;20447;-76
2022/11/16 00:11:53;;;;;;;0.50;0.10;;;12.80;99.90;;;;;;4932835;29;20487;-76
2022/11/16 00:14:22;;;;;;;0.60;0.10;;;12.80;99.90;;;;;;4937644;29;20830;-75
2022/11/16 00:16:51;;;;;;;0.57;0.10;;;12.80;99.90;;;;;;4937913;29;20448;-75
2022/11/16 00:19:19;;;;;;;0.60;0.10;;;12.70;99.90;;;;;;4937805;29;20444;-74
2022/11/16 00:21:47;;;;;;;0.53;0.10;;;12.70;99.90;;;;;;4937276;29;20460;-75
2022/11/16 00:24:16;;;;;;;0.60;0.10;;;12.70;99.90;;;;;;4937145;29;20522;-75
2022/11/16 00:26:44;;;;;;;0.50;0.10;;;;;;;;;;4937441;29;20459;-75
2022/11/16 00:29:15;;;;;;;0.60;0.10;;;12.70;99.90;;;;;;4937521;29;20458;-76
2022/11/16 00:31:44;;;;;;;0.60;0.10;;;12.70;99.90;;;;;;4937547;29;20471;-75
2022/11/16 00:34:12;;;;;;;0.50;0.10;;;12.70;99.90;;;;;;4936916;29;20475;-74
2022/11/16 00:36:39;;;;;;;0.50;0.20;;;12.70;99.90;;;;;;4936238;29;20468;-75
2022/11/16 00:39:07;;;;;;;0.57;0.10;;;12.70;99.90;;;;;;4937186;29;20488;-75
2022/11/16 00:41:35;;;;;;;0.50;0.10;;;12.70;99.90;;;;;;4937202;29;20800;-74
2022/11/16 00:44:02;;;;;;;0.50;0.10;;;12.60;99.90;;;;;;4936628;29;20535;-76
2022/11/16 00:46:31;;;;;;;0.50;0.10;;;12.70;99.90;;;;;;4936945;29;20452;-75
2022/11/16 00:48:59;;;;;;;0.50;0.10;;;12.60;99.90;;;;;;4937158;29;20460;-76
2022/11/16 00:51:27;;;;;;;0.60;0.10;;;12.60;99.90;;;;;;4937014;29;20474;-75
2022/11/16 00:53:55;;;;;;;0.60;0.10;;;12.60;99.90;;;;;;4936775;29;21041;-73
2022/11/16 00:56:23;;;;;;;0.50;0.10;;;12.60;99.90;;;;;;4936661;29;20448;-74
2022/11/16 00:58:51;;;;;;;0.50;0.10;;;12.60;99.90;;;;;;4931101;29;20448;-74
2022/11/16 05:02:26;;;;;;;0.50;0.20;;;12.30;99.90;;;;;;5175302;23;20479;-77
2022/11/16 05:04:54;;;;;;;1.80;1.70;;;12.20;99.90;;;;;;4978014;28;20438;-77
2022/11/16 05:07:22;;;;;;;0.90;0.53;;;12.20;99.90;;;;;;4977085;29;20451;-77
2022/11/16 05:09:50;;;;;;;0.50;0.10;;;12.10;99.90;;;;;;4972143;29;20455;-79
2022/11/16 05:12:22;;;;;;;0.50;0.10;;;12.10;99.90;;;;;;4973206;29;20454;-79
2022/11/16 05:14:50;;;;;;;0.50;0.10;;;12.10;99.90;;;;;;4969423;29;20482;-78
2022/11/16 05:17:18;;;;;;;0.50;0.10;;;12.10;99.90;;;;;;4976730;23;20500;-77
2022/11/16 05:22:34;;;;;;;0.50;0.10;;;12.10;99.90;;;;;;4925401;29;20441;-75
2022/11/16 05:25:01;;;;;;;0.60;0.30;;;12.10;99.90;;;;;;4917707;29;20444;-76
2022/11/16 05:27:30;;;;;;;8.87;4.90;;;12.20;99.90;;;;;;4918088;29;20895;-76
2022/11/16 05:29:58;;;;;;;0.50;0.10;;;12.10;99.90;;;;;;4918835;29;20955;-76
2022/11/16 05:32:27;;;;;;;0.60;0.10;;;12.10;99.90;;;;;;4932147;29;20990;-76
2022/11/16 05:34:57;;;;;;;0.50;0.30;;;12.10;99.90;;;;;;4936312;29;20440;-75
2022/11/16 05:37:25;;;;;;;0.50;0.10;;;12.10;99.90;;;;;;4936775;29;20464;-77
2022/11/16 05:39:53;;;;;;;0.50;0.10;;;12.20;99.90;;;;;;4935340;29;20513;-76
2022/11/16 05:42:21;;;;;;;0.50;0.10;;;12.20;99.90;;;;;;4934228;29;20472;-75
2022/11/16 05:44:49;;;;;;;0.50;0.20;;;12.20;99.90;;;;;;4935199;29;20499;-76
2022/11/16 05:47:17;;;;;;;8.67;8.37;;;12.20;1.00;;;;;;4934864;29;20495;-76
2022/11/16 05:49:44;;;;;;;0.50;0.10;;;12.20;1.00;;;;;;4933558;29;20440;-76
2022/11/16 05:52:13;;;;;;;0.50;0.10;;;12.20;1.00;;;;;;4935577;29;20509;-76
2022/11/16 05:54:41;;;;;;;0.60;0.30;;;12.20;1.00;;;;;;4935207;29;20472;-76
2022/11/16 05:57:09;;;;;;;0.50;0.10;;;12.20;1.00;;;;;;4932543;29;20496;-76
2022/11/16 05:59:37;;;;;;;1.23;0.60;;;12.20;1.00;;;;;;4939084;29;20456;-76
2022/11/16 06:02:04;;;;;;;26.53;20.30;;;12.20;1.00;;;;;;4934584;29;20495;-76
2022/11/16 06:04:33;;;;;;;0.50;0.10;;;12.10;1.00;;;;;;4934927;29;20480;-76
2022/11/16 06:07:02;;;;;;;0.77;0.43;;;12.10;1.00;;;;;;4936080;29;20475;-77
2022/11/16 06:09:31;;;;;;;1.23;1.13;;;12.10;1.00;;;;;;4936684;29;20934;-76
2022/11/16 06:11:58;;;;;;;1.03;0.93;;;12.00;1.00;;;;;;4934537;29;20507;-76
2022/11/16 06:14:26;;;;;;;0.50;0.10;;;12.00;1.00;;;;;;4936519;29;20479;-75
2022/11/16 06:16:54;;;;;;;0.50;0.10;;;12.10;1.00;;;;;;4927987;29;20560;-75
2022/11/16 06:19:22;;;;;;;0.50;0.10;;;12.10;1.00;;;;;;4928408;29;20827;-77
2022/11/16 06:21:54;;;;;;;1.53;1.23;;;12.10;1.00;;;;;;4935526;29;20459;-76
2022/11/16 06:24:22;;;;;;;0.50;0.10;;;12.10;1.00;;;;;;4952358;29;20458;-76
2022/11/16 06:26:51;;;;;;;0.50;0.10;;;12.00;1.00;;;;;;4954993;28;20527;-77
2022/11/16 06:29:19;;;;;;;0.60;0.30;;;12.00;1.00;;;;;;4950858;29;20989;-76
2022/11/16 06:31:47;;;;;;;0.50;0.10;;;12.10;1.00;;;;;;4928028;29;20504;-76
2022/11/16 06:34:15;;;;;;;0.50;0.10;;;12.10;1.00;;;;;;4929825;29;21006;-75
2022/11/16 06:36:43;;;;;;;0.50;0.10;;;12.00;1.00;;;;;;4934756;29;20460;-76
2022/11/16 06:39:12;;;;;;;0.60;0.30;;;12.00;1.00;;;;;;4935296;29;20464;-76
2022/11/16 06:41:39;;;;;;;0.50;0.10;;;12.00;1.00;;;;;;4934556;29;20452;-76
2022/11/16 06:44:09;;;;;;;0.93;0.83;;;12.00;1.00;;;;;;4934692;29;20499;-76
2022/11/16 06:46:37;;;;;;;0.60;0.43;;;12.00;1.00;;;;;;4935143;29;20467;-76
2022/11/16 06:49:05;;;;;;;0.50;0.20;;;12.00;1.00;;;;;;4935292;29;20464;-76
2022/11/16 06:51:33;;;;;;;0.50;0.10;;;12.00;1.00;;;;;;4932540;29;20543;-76
2022/11/16 06:54:01;;;;;;;0.70;0.50;;;;;;;;;;4933740;29;20918;-76
2022/11/16 06:56:29;;;;;;;0.50;0.10;;;12.10;1.00;;;;;;4928164;29;20799;-77
2022/11/16 06:58:57;;;;;;;0.50;0.10;;;12.10;1.00;;;;;;4934226;29;20452;-77
2022/11/16 07:01:26;;;;;;;0.50;0.10;;;12.10;1.00;;;;;;4934370;29;20492;-77
2022/11/16 07:03:54;;;;;;;1.17;0.93;;;12.10;1.00;;;;;;4932543;29;20476;-76
2022/11/16 07:06:33;;;;;;;0.50;0.10;;;12.00;1.00;;;;;;4928961;29;20475;-76
2022/11/16 07:09:16;;;;;;;0.50;0.10;;;12.00;1.00;;;;;;4921066;29;20543;-75
2022/11/16 07:11:43;;;;;;;0.60;0.50;;;12.00;1.00;;;;;;4937654;29;20448;-75
2022/11/16 07:14:11;;;;;;;1.00;1.00;;;12.10;1.00;;;;;;4936883;29;20515;-74
2022/11/16 07:16:40;;;;;;;0.50;0.10;;;12.10;1.00;;;;;;4935165;29;20527;-74
2022/11/16 07:19:09;;;;;;;1.30;0.60;;;12.00;1.00;;;;;;4939412;29;20841;-76
2022/11/16 07:21:37;;;;;;;6.40;3.13;;;12.00;1.00;;;;;;4938512;29;20511;-76
2022/11/16 07:24:05;;;;;;;0.50;0.10;;;12.00;1.00;;;;;;4938929;29;20450;-75
2022/11/16 07:26:33;;;;;;;3.30;1.60;;;12.00;1.00;;;;;;4937617;29;20486;-76
2022/11/16 07:29:01;;;;;;;0.53;0.33;;;11.90;1.00;;;;;;4947097;29;20510;-76
2022/11/16 07:31:29;;;;;;;0.60;0.40;;;11.90;1.00;;;;;;4956647;29;20450;-74
2022/11/16 07:33:59;;;;;;;1.30;0.93;;;11.90;1.00;;;;;;4954260;29;20490;-75
2022/11/16 07:36:26;;;;;;;0.50;0.10;;;11.90;1.00;;;;;;4939607;29;20479;-75
2022/11/16 07:38:54;;;;;;;5.07;4.63;;;11.90;1.00;;;;;;4937113;29;20480;-75
2022/11/16 07:41:22;;;;;;;0.50;0.10;;;11.90;1.00;;;;;;4938769;29;20467;-74
2022/11/16 07:43:50;;;;;;;0.50;0.10;;;11.90;1.00;;;;;;4957118;29;20498;-74
2022/11/16 07:46:22;;;;;;;1.17;1.07;;;11.90;1.00;;;;;;4941279;29;20460;-76
2022/11/16 07:49:14;;;;;;;0.73;0.40;;;11.90;1.00;;;;;;4921846;29;20492;-76
2022/11/16 07:51:42;;;;;;;1.53;1.17;;;11.90;1.00;;;;;;4950123;29;20503;-74
2022/11/16 07:54:11;;;;;;;0.50;0.10;;;11.90;1.00;;;;;;4937337;29;20479;-76
2022/11/16 07:56:39;;;;;;;0.50;0.10;;;11.90;1.00;;;;;;4937899;29;20479;-77
2022/11/16 07:59:07;;;;;;;0.80;0.60;;;11.90;1.00;;;;;;4938691;29;20451;-76
2022/11/16 08:01:35;;;;;;;0.50;0.10;;;11.90;1.00;;;;;;4938428;29;20455;-76
2022/11/16 08:04:03;;;;;;;0.50;0.10;;;12.00;1.00;;;;;;4937726;29;20446;-76
2022/11/16 08:06:32;;;;;;;0.50;0.10;;;12.00;1.00;;;;;;4937465;29;20471;-75
2022/11/16 08:09:00;;;;;;;0.50;0.10;;;12.10;1.00;;;;;;4937781;29;20455;-75
2022/11/16 08:11:28;;;;;;;0.50;0.10;;;12.20;1.00;;;;;;4945799;29;20682;-76
2022/11/16 08:13:56;;;;;;;0.80;0.60;;;12.20;1.00;;;;;;4937420;29;21025;-76
2022/11/16 08:16:24;;;;;;;0.50;0.10;;;12.20;1.00;;;;;;4937293;29;20479;-78
2022/11/16 08:18:52;;;;;;;0.50;0.10;;;12.20;1.00;;;;;;4937691;29;20535;-77
2022/11/16 08:21:20;;;;;;;0.50;0.10;;;12.40;1.00;;;;;;4954842;29;20475;-76
2022/11/16 08:23:49;;;;;;;0.50;0.10;;;12.40;1.00;;;;;;4956488;29;20454;-76
2022/11/16 08:26:24;;;;;;;1.23;1.13;;;12.40;1.00;;;;;;4956702;28;21009;-76
2022/11/16 08:28:54;;;;;;;0.50;0.10;;;12.40;1.00;;;;;;4952456;29;21208;-76
2022/11/16 08:31:24;;;;;;;0.50;0.10;;;12.50;1.00;;;;;;4949955;29;20489;-75
2022/11/16 08:33:52;;;;;;;3.13;2.83;;;12.50;1.00;;;;;;4955610;28;20520;-75
2022/11/16 08:36:20;;;;;;;1.67;1.17;;;12.40;1.00;;;;;;4940924;29;20488;-76
2022/11/16 08:38:51;;;;;;;1.03;0.40;;;12.40;1.00;;;;;;4945312;29;20424;-76
2022/11/16 08:41:20;;;;;;;4.87;3.10;;;12.30;99.90;;;;;;4947436;29;20496;-76
2022/11/16 08:43:49;;;;;;;0.50;0.10;;;12.20;99.90;;;;;;4940139;29;20507;-75
2022/11/16 08:46:17;;;;;;;0.50;0.20;;;12.20;99.90;;;;;;4936780;29;20467;-77
2022/11/16 08:48:45;;;;;;;1.70;1.60;;;12.10;99.90;;;;;;4937194;29;20460;-76
2022/11/16 08:51:16;;;;;;;4.33;2.83;;;12.20;99.90;;;;;;4937058;29;20467;-77
2022/11/16 08:53:47;;;;;;;0.50;0.10;;;12.20;99.90;;;;;;4950014;29;20807;-77
2022/11/16 08:56:18;;;;;;;8.80;8.30;;;12.30;99.90;;;;;;4956061;28;20494;-76
2022/11/16 08:58:46;;;;;;;0.50;0.10;;;12.20;99.90;;;;;;4954672;29;20455;-78
2022/11/16 09:01:20;;;;;;;0.50;0.10;;;12.20;99.90;;;;;;4956328;29;20983;-78
2022/11/16 09:03:48;;;;;;;1.13;0.77;;;12.30;99.90;;;;;;4950621;29;20451;-78
2022/11/16 09:06:16;;;;;;;1.13;0.80;;;12.20;99.90;;;;;;4956123;28;20478;-77
2022/11/16 09:08:45;;;;;;;0.77;0.37;;;12.00;99.90;;;;;;4955957;29;20447;-77
2022/11/16 09:11:15;;;;;;;1.37;1.27;;;12.00;99.90;;;;;;4946814;29;20467;-76
2022/11/16 09:13:46;;;;;;;0.60;0.20;;;11.90;99.90;;;;;;4935876;29;20479;-76
2022/11/16 09:16:15;;;;;;;1.30;0.93;;;12.00;99.90;;;;;;4936361;29;20526;-76
2022/11/16 09:18:44;;;;;;;0.50;0.10;;;12.00;99.90;;;;;;4932648;29;20443;-77
2022/11/16 09:21:12;;;;;;;0.50;0.10;;;12.10;99.90;;;;;;4929520;29;20529;-77
2022/11/16 09:23:40;;;;;;;0.50;0.10;;;12.20;99.90;;;;;;4941339;29;20459;-77
2022/11/16 09:26:07;;;;;;;1.27;1.27;;;12.30;99.90;;;;;;4928534;29;21010;-77
2022/11/16 09:28:35;;;;;;;0.50;0.10;;;12.30;99.90;;;;;;4934256;29;20503;-76
2022/11/16 09:31:06;;;;;;;0.87;0.77;;;12.40;99.90;;;;;;4928015;29;20539;-76
2022/11/16 09:33:34;;;;;;;0.50;0.20;;;12.50;99.90;;;;;;4938440;29;20447;-77
2022/11/16 09:36:05;;;;;;;1.17;0.77;;;12.50;99.90;;;;;;4936532;29;20514;-75
2022/11/16 09:38:34;;;;;;;1.23;0.70;;;12.50;99.90;;;;;;4936407;29;20495;-76
2022/11/16 09:41:39;;;;;;;0.50;0.10;;;12.40;99.90;;;;;;4941441;29;21031;-76
2022/11/16 09:44:19;;;;;;;0.93;0.93;;;12.30;99.90;;;;;;4928374;29;20925;-76
2022/11/16 09:46:54;;;;;;;0.87;0.60;;;12.30;99.90;;;;;;4936382;29;20475;-76
2022/11/16 09:49:24;;;;;;;0.70;0.50;;;12.30;99.90;;;;;;4935896;29;20487;-75
2022/11/16 09:51:59;;;;;;;1.10;0.70;;;12.30;99.90;;;;;;4935064;29;20492;-76
2022/11/16 09:54:30;;;;;;;0.50;0.20;;;12.20;99.90;;;;;;4941207;29;20505;-75
2022/11/16 09:57:00;;;;;;;2.10;0.70;;;12.30;99.90;;;;;;4950016;28;20884;-76
2022/11/16 09:59:35;;;;;;;0.60;0.20;;;12.30;99.90;;;;;;4935905;29;20451;-75
2022/11/16 10:02:18;;;;;;;0.60;0.30;;;12.40;99.90;;;;;;4933374;29;20851;-76
2022/11/16 10:04:51;;;;;;;0.50;0.10;;;12.50;99.90;;;;;;4943439;29;20526;-76
2022/11/16 10:07:31;;;;;;;0.60;0.10;;;12.60;99.90;;;;;;4934674;29;20605;-75
2022/11/16 10:09:59;;;;;;;1.57;1.47;;;12.70;99.90;;;;;;4932649;29;20458;-76
2022/11/16 10:12:38;;;;;;;0.60;0.20;;;12.70;99.90;;;;;;4935134;29;20440;-75
2022/11/16 10:15:19;;;;;;;4.10;1.20;;;12.70;99.90;;;;;;4935265;29;20460;-75
2022/11/16 10:18:03;;;;;;;0.83;0.30;;;12.60;99.90;;;;;;4935314;29;20487;-74
2022/11/16 10:20:55;;;;;;;0.50;0.10;;;12.50;99.90;;;;;;4935245;29;20815;-75
2022/11/16 10:23:36;;;;;;;0.50;0.10;;;12.30;99.90;;;;;;4935056;29;20448;-77
2022/11/16 10:26:16;;;;;;;0.60;0.20;;;12.40;99.90;;;;;;4953947;28;20466;-77
2022/11/16 10:28:59;;;;;;;0.50;0.10;;;12.60;99.90;;;;;;4954420;29;20455;-77
2022/11/16 10:31:39;;;;;;;0.60;0.10;;;12.70;99.90;;;;;;4920813;29;20478;-76
2022/11/16 10:34:14;;;;;;;0.50;0.10;;;12.80;99.90;;;;;;4921561;29;20478;-77
2022/11/16 10:36:41;;;;;;;0.60;0.30;;;12.80;99.90;;;;;;4942545;28;20553;-76
2022/11/16 10:39:13;;;;;;;0.70;0.33;;;12.80;99.90;;;;;;4935360;29;20456;-78
2022/11/16 10:41:44;;;;;;;0.60;0.23;;;12.80;99.90;;;;;;4952728;29;20455;-77
2022/11/16 10:44:19;;;;;;;0.60;0.10;;;12.70;99.90;;;;;;4944949;29;20507;-76
2022/11/16 10:46:56;;;;;;;0.60;0.10;;;12.70;99.90;;;;;;4934995;29;20459;-75
2022/11/16 10:49:32;;;;;;;0.60;0.10;;;12.70;99.90;;;;;;4935522;29;20486;-77
2022/11/16 10:52:00;;;;;;;0.50;0.10;;;12.70;99.90;;;;;;4935610;29;20448;-75
2022/11/16 10:54:27;;;;;;;1.03;0.83;;;12.80;99.90;;;;;;4934735;29;20479;-77
2022/11/16 10:57:03;;;;;;;2.00;1.90;;;12.90;99.90;;;;;;4933856;29;20491;-75
2022/11/16 10:59:42;;;;;;;2.53;2.43;;;13.00;99.90;;;;;;4915862;29;20441;-76
2022/11/16 11:02:33;;;;;;;0.60;0.10;;;13.00;99.90;;;;;;4915966;29;20453;-76
2022/11/16 11:05:05;;;;;;;0.60;0.10;;;13.00;99.90;;;;;;4915959;29;20556;-77
2022/11/16 11:07:36;;;;;;;0.70;0.33;;;13.00;99.90;;;;;;4915753;29;20516;-77
2022/11/16 11:10:05;;;;;;;0.60;0.10;;;13.10;99.90;;;;;;4916148;29;20449;-78
2022/11/16 11:12:39;;;;;;;0.60;0.10;;;13.10;99.90;;;;;;4921486;29;20460;-76
2022/11/16 11:15:22;;;;;;;0.60;0.10;;;13.30;99.90;;;;;;4932316;29;20471;-76
2022/11/16 11:18:13;;;;;;;0.50;0.10;;;13.30;99.90;;;;;;4978005;23;21005;-81
2022/11/16 11:20:46;;;;;;;0.60;0.10;;;13.40;99.90;;;;;;4958318;29;20498;-79
2022/11/16 11:23:17;;;;;;;0.60;0.10;;;13.40;99.90;;;;;;4973477;29;20498;-79
2022/11/16 11:25:56;;;;;;;0.60;0.10;;;13.40;99.90;;;;;;4968312;29;20538;-79
2022/11/16 11:28:26;;;;;;;0.60;0.10;;;13.40;99.90;;;;;;4956432;29;20472;-80
2022/11/16 11:30:58;;;;;;;0.60;0.10;;;13.50;99.90;;;;;;4958343;29;20449;-78
2022/11/16 11:33:29;;;;;;;0.60;0.10;;;13.50;99.90;;;;;;4952712;29;20459;-80
2022/11/16 11:36:03;;;;;;;0.60;0.10;;;13.60;99.90;;;;;;4953698;29;20568;-81
2022/11/16 11:38:31;;;;;;;0.60;0.10;;;13.60;99.90;;;;;;4949737;29;20498;-79
2022/11/16 11:41:03;;;;;;;0.60;0.10;;;13.70;99.90;;;;;;4948105;29;20452;-79
2022/11/16 11:43:33;;;;;;;0.60;0.10;;;13.70;99.90;;;;;;4946848;29;20519;-79
2022/11/16 11:46:11;;;;;;;0.60;0.10;;;13.80;99.90;;;;;;4950271;29;22016;-80
2022/11/16 11:48:47;;;;;;;0.60;0.10;;;13.80;99.90;;;;;;4955251;28;20466;-79
2022/11/16 11:51:21;;;;;;;0.60;0.10;;;13.90;99.90;;;;;;4953343;29;20526;-79
2022/11/16 11:53:54;;;;;;;0.60;0.10;;;13.90;99.90;;;;;;4948480;29;20539;-78
2022/11/16 11:56:24;;;;;;;0.60;0.10;;;13.90;99.90;;;;;;4945841;29;20487;-79
2022/11/16 11:58:52;;;;;;;0.60;0.10;;;13.90;99.90;;;;;;4945030;29;20447;-79
2022/11/16 12:01:50;;;;;;;0.60;0.13;;;13.70;99.90;;;;;;4950520;29;20462;-78
2022/11/16 12:04:53;;;;;;;0.60;0.10;;;13.70;99.90;;;;;;4939355;29;20476;-79
2022/11/16 12:07:49;;;;;;;0.60;0.10;;;13.60;99.90;;;;;;4948408;29;20459;-80
2022/11/16 12:10:25;;;;;;;0.60;0.10;;;13.60;99.90;;;;;;4949593;29;20819;-80
2022/11/16 12:13:07;;;;;;;0.60;0.10;;;13.60;99.90;;;;;;4950382;29;21231;-79
2022/11/16 12:15:50;;;;;;;0.60;0.10;;;13.60;99.90;;;;;;4948223;29;20463;-80
2022/11/16 12:18:35;;;;;;;0.60;0.10;;;13.60;99.90;;;;;;4948626;29;20526;-78
2022/11/16 12:21:11;;;;;;;0.60;0.20;;;13.60;99.90;;;;;;4946150;29;20448;-79
2022/11/16 12:24:07;;;;;;;0.60;0.10;;;13.50;99.90;;;;;;4946537;29;20460;-79
2022/11/16 12:26:44;;;;;;;0.60;0.10;;;13.50;99.90;;;;;;4917589;29;20479;-79
2022/11/16 12:29:24;;;;;;;0.60;0.10;;;13.40;99.90;;;;;;4946213;29;20456;-79
2022/11/16 12:32:18;;;;;;;0.57;0.10;;;13.40;99.90;;;;;;4945788;29;20451;-78
2022/11/16 12:35:00;;;;;;;0.60;0.10;;;13.40;99.90;;;;;;4962334;29;20471;-78
2022/11/16 12:37:38;;;;;;;0.60;0.10;;;13.40;99.90;;;;;;4947987;29;20495;-78
2022/11/16 12:40:36;;;;;;;0.60;0.10;;;13.30;99.90;;;;;;4954522;29;20447;-80
2022/11/16 12:43:14;;;;;;;0.60;0.10;;;13.40;99.90;;;;;;4944801;29;20467;-80
2022/11/16 12:45:53;;;;;;;0.60;0.10;;;13.40;99.90;;;;;;4943949;29;20939;-80
2022/11/16 12:48:48;;;;;;;0.60;0.10;;;13.40;99.90;;;;;;4943231;29;20938;-81
2022/11/16 12:51:37;;;;;;;0.60;0.10;;;13.60;99.90;;;;;;4945200;29;20440;-81
2022/11/16 12:54:25;;;;;;;0.60;0.10;;;13.70;99.90;;;;;;4944599;29;20970;-81
2022/11/16 12:57:04;;;;;;;0.57;0.10;;;13.70;99.90;;;;;;4944778;29;20494;-80
2022/11/16 12:59:50;;;;;;;0.60;0.10;;;13.70;99.90;;;;;;4944321;29;20871;-80
2022/11/16 13:02:36;;;;;;;0.60;0.10;;;13.70;99.90;;;;;;4944503;29;20491;-80
2022/11/16 13:05:11;;;;;;;0.60;0.10;;;13.70;99.90;;;;;;4944561;29;20463;-80
2022/11/16 13:07:43;;;;;;;0.60;0.10;;;13.60;99.90;;;;;;4943572;29;20958;-79
2022/11/16 13:10:18;;;;;;;0.60;0.10;;;13.60;99.90;;;;;;4943673;29;20444;-79
2022/11/16 13:12:51;;;;;;;0.60;0.10;;;13.60;99.90;;;;;;4944003;29;20452;-81
2022/11/16 13:15:36;;;;;;;0.60;0.20;;;13.60;99.90;;;;;;4944839;29;20464;-80
2022/11/16 13:18:07;;;;;;;0.60;0.10;;;13.60;99.90;;;;;;4935170;29;20491;-80
2022/11/16 13:20:44;;;;;;;0.60;0.10;;;13.70;99.90;;;;;;4943688;29;20452;-81
2022/11/16 13:23:18;;;;;;;0.60;0.10;;;13.60;99.90;;;;;;4963427;29;21016;-80
2022/11/16 13:25:53;;;;;;;0.60;0.10;;;13.70;99.90;;;;;;4947739;29;20463;-78
2022/11/16 13:28:30;;;;;;;0.60;0.10;;;13.80;99.90;;;;;;4953991;29;20451;-80
2022/11/16 13:31:05;;;;;;;0.60;0.10;;;13.80;99.90;;;;;;4944492;29;20477;-78
2022/11/16 13:33:42;;;;;;;0.60;0.10;;;13.90;99.90;;;;;;4943318;29;20456;-81
2022/11/16 13:36:43;;;;;;;0.60;0.10;;;14.10;99.90;;;;;;4945694;29;20484;-79
2022/11/16 13:39:16;;;;;;;0.60;0.10;;;;;;;;;;4946325;29;20440;-81
2022/11/16 13:41:52;;;;;;;0.60;0.10;;;14.10;99.90;;;;;;4972094;29;20454;-79
2022/11/16 13:44:30;;;;;;;0.60;0.10;;;14.10;99.90;;;;;;4977484;28;20558;-80
2022/11/16 13:47:03;;;;;;;0.60;0.10;;;14.20;99.90;;;;;;4961768;28;20507;-80
2022/11/16 13:49:37;;;;;;;0.70;0.53;;;14.10;99.90;;;;;;4949199;29;20428;-79
2022/11/16 13:52:07;;;;;;;0.60;0.10;;;14.10;99.90;;;;;;4945618;29;20838;-79
2022/11/16 13:54:53;;;;;;;0.60;0.10;;;14.10;99.90;;;;;;4944140;29;20464;-81
2022/11/16 13:57:25;;;;;;;0.60;0.10;;;14.30;99.90;;;;;;4940652;29;20484;-80
2022/11/16 14:00:10;;;;;;;0.60;0.10;;;14.40;99.90;;;;;;4944662;29;20436;-80
2022/11/16 14:02:43;;;;;;;0.60;0.10;;;14.40;99.90;;;;;;4950271;29;20455;-79
2022/11/16 14:05:16;;;;;;;0.60;0.10;;;14.30;97.20;;;;;;4957155;29;20448;-80
2022/11/16 14:07:48;;;;;;;0.60;0.10;;;14.30;95.80;;;;;;4951159;29;20475;-81
2022/11/16 14:10:50;;;;;;;0.60;0.10;;;14.30;95.40;;;;;;4944561;29;20447;-80
2022/11/16 14:13:38;;;;;;;0.60;0.10;;;14.30;95.60;;;;;;4944205;29;20443;-81
2022/11/16 14:16:44;;;;;;;0.60;0.10;;;14.20;97.20;;;;;;4944938;29;20472;-80
2022/11/16 14:19:55;;;;;;;0.60;0.10;;;14.10;96.20;;;;;;4942574;29;20515;-80
2022/11/16 14:22:56;;;;;;;0.60;0.10;;;14.00;96.80;;;;;;4941981;29;20463;-81
2022/11/16 14:25:30;;;;;;;0.60;0.10;;;;;;;;;;4942964;29;20879;-80
2022/11/16 14:28:11;;;;;;;0.60;0.10;;;14.00;99.90;;;;;;4943866;29;20464;-80
2022/11/16 14:30:51;;;;;;;0.60;0.10;;;14.00;99.90;;;;;;4943765;29;20468;-81
2022/11/16 14:33:29;;;;;;;0.60;0.10;;;13.90;99.90;;;;;;4943604;29;20455;-80
2022/11/16 14:36:02;;;;;;;0.60;0.10;;;13.90;99.90;;;;;;4945071;29;20452;-80
2022/11/16 14:38:33;;;;;;;0.60;0.10;;;13.90;99.90;;;;;;4946181;29;20511;-80
2022/11/16 14:41:04;;;;;;;0.60;0.10;;;13.80;99.90;;;;;;4944431;29;20510;-81
2022/11/16 14:43:38;;;;;;;0.60;0.23;;;13.80;99.90;;;;;;4945257;29;20543;-79
2022/11/16 14:46:09;;;;;;;0.60;0.10;;;13.80;99.90;;;;;;4944078;29;20479;-80
2022/11/16 14:48:44;;;;;;;0.60;0.10;;;13.80;99.90;;;;;;4944004;29;20457;-80
2022/11/16 14:51:19;;;;;;;0.60;0.10;;;13.80;99.90;;;;;;4945238;29;20463;-80
2022/11/16 14:53:50;;;;;;;0.60;0.10;;;13.80;99.90;;;;;;4944573;29;20459;-81
2022/11/16 14:56:19;;;;;;;0.60;0.30;;;13.70;99.90;;;;;;4944104;29;20472;-82
2022/11/16 14:58:52;;;;;;;0.60;0.10;;;13.70;99.90;;;;;;4944765;29;20567;-81
2022/11/16 15:01:23;;;;;;;0.60;0.10;;;13.60;99.90;;;;;;4943806;29;20849;-79
2022/11/16 15:04:01;;;;;;;0.60;0.10;;;13.70;99.90;;;;;;4944978;29;20432;-81
2022/11/16 15:06:35;;;;;;;0.53;0.10;;;13.70;99.90;;;;;;4945928;29;20486;-80
2022/11/16 15:09:04;;;;;;;0.60;0.10;;;13.70;99.90;;;;;;4942979;29;20460;-79
2022/11/16 15:14:28;;;;;;;0.60;0.10;;;13.60;99.90;;;;;;4943042;29;20437;-79
2022/11/16 15:16:58;;;;;;;0.60;0.10;;;13.60;99.90;;;;;;4942989;29;20502;-79
2022/11/16 15:19:30;;;;;;;0.60;0.10;;;13.60;99.90;;;;;;4943357;29;20464;-81
2022/11/16 15:22:02;;;;;;;0.60;0.10;;;13.60;99.90;;;;;;4942928;29;20448;-79
2022/11/16 15:24:31;;;;;;;0.60;0.10;;;13.60;99.90;;;;;;4944487;29;20451;-79
2022/11/16 15:27:12;;;;;;;0.60;0.10;;;13.50;99.90;;;;;;4942751;29;20570;-80
2022/11/16 15:29:40;;;;;;;0.60;0.10;;;;;;;;;;4943541;29;20515;-80
2022/11/16 15:32:15;;;;;;;0.53;0.10;;;13.50;99.90;;;;;;4944827;29;20447;-81
2022/11/16 15:34:46;;;;;;;0.60;0.10;;;13.50;99.90;;;;;;4943848;29;20824;-82
2022/11/16 15:37:27;;;;;;;0.60;0.10;;;13.50;99.90;;;;;;4948507;29;20556;-80
2022/11/16 15:39:56;;;;;;;0.57;0.10;;;13.40;99.90;;;;;;4944098;29;20491;-81
2022/11/16 15:42:26;;;;;;;0.60;0.10;;;13.40;99.90;;;;;;4946552;29;20519;-81
2022/11/16 15:44:55;;;;;;;0.60;0.10;;;13.40;99.90;;;;;;4947891;29;20503;-79
2022/11/16 15:47:24;;;;;;;0.60;0.10;;;13.40;99.90;;;;;;4948947;29;20543;-80
2022/11/16 15:49:52;;;;;;;0.60;0.10;;;13.40;99.90;;;;;;4947899;29;20523;-80
2022/11/16 15:52:43;;;;;;;0.60;0.10;;;13.40;99.90;;;;;;4948767;29;20452;-80
2022/11/16 15:55:22;;;;;;;0.60;0.10;;;13.30;99.90;;;;;;4949659;29;20436;-79
2022/11/16 15:58:02;;;;;;;0.60;0.10;;;13.30;99.90;;;;;;4956447;29;20536;-79
2022/11/16 16:00:33;;;;;;;0.53;0.10;;;13.20;99.90;;;;;;4959010;29;20515;-79
2022/11/16 16:03:06;;;;;;;0.60;0.10;;;13.20;99.90;;;;;;4957186;29;20475;-78
2022/11/16 16:05:39;;;;;;;0.60;0.10;;;13.20;99.90;;;;;;4958687;29;20483;-80
2022/11/16 16:08:28;;;;;;;0.60;0.10;;;13.10;99.90;;;;;;4958162;29;20492;-79
2022/11/16 16:11:04;;;;;;;0.60;0.10;;;13.10;99.90;;;;;;4954128;29;20452;-79
2022/11/16 16:13:35;;;;;;;0.50;0.10;;;13.10;99.90;;;;;;4948287;29;20451;-81
2022/11/16 16:16:27;;;;;;;0.60;0.10;;;13.00;99.90;;;;;;4948029;29;20462;-82
2022/11/16 16:18:58;;;;;;;0.60;0.10;;;13.00;99.90;;;;;;4951167;29;20554;-79
2022/11/16 16:21:40;;;;;;;0.60;0.10;;;13.00;99.90;;;;;;4952726;29;20858;-78
2022/11/16 16:24:11;;;;;;;0.50;0.10;;;12.90;99.90;;;;;;4956788;29;20459;-78
2022/11/16 16:26:39;;;;;;;0.60;0.10;;;12.90;99.90;;;;;;4959106;29;20456;-78
2022/11/16 16:29:06;;;;;;;0.60;0.10;;;12.90;99.90;;;;;;4957725;29;20452;-78
2022/11/16 16:31:34;;;;;;;0.50;0.10;;;12.80;99.90;;;;;;4963622;29;20467;-80
2022/11/16 16:34:11;;;;;;;0.60;0.10;;;12.80;99.90;;;;;;4964213;29;20491;-79
2022/11/16 16:36:39;;;;;;;0.50;0.10;;;12.70;99.90;;;;;;4958669;29;20479;-78
2022/11/16 16:39:07;;;;;;;0.60;0.10;;;12.70;99.90;;;;;;4952467;29;20472;-78
2022/11/16 16:41:36;;;;;;;0.60;0.10;;;12.70;99.90;;;;;;4964058;29;20912;-77
2022/11/16 16:44:05;;;;;;;0.60;0.10;;;12.70;99.90;;;;;;4965717;29;20447;-78
2022/11/16 16:46:32;;;;;;;0.50;0.10;;;12.70;99.90;;;;;;4963892;29;20470;-78
2022/11/16 16:49:00;;;;;;;0.50;0.10;;;12.70;99.90;;;;;;4952723;29;20452;-78
2022/11/16 16:51:28;;;;;;;0.50;0.10;;;12.70;99.90;;;;;;4944345;29;20452;-78
2022/11/16 16:53:56;;;;;;;0.57;0.10;;;12.70;99.90;;;;;;4939802;29;20448;-79
2022/11/16 16:56:24;;;;;;;0.60;0.10;;;12.70;99.90;;;;;;4943544;29;20468;-78
2022/11/16 16:58:53;;;;;;;0.60;0.10;;;12.70;99.90;;;;;;4950239;29;20483;-78
2022/11/16 17:01:21;;;;;;;0.50;0.10;;;12.70;99.90;;;;;;4936665;29;20455;-78
2022/11/16 17:03:49;;;;;;;0.50;0.10;;;12.70;99.90;;;;;;4944020;29;20947;-79
2022/11/16 17:06:17;;;;;;;0.50;0.10;;;12.70;99.90;;;;;;4946371;29;20560;-79
2022/11/16 17:08:45;;;;;;;0.50;0.10;;;12.60;99.90;;;;;;4944846;29;20547;-79
2022/11/16 17:11:14;;;;;;;0.60;0.10;;;12.60;99.90;;;;;;4942786;29;20963;-77
2022/11/16 17:13:42;;;;;;;0.50;0.10;;;12.70;99.90;;;;;;4946567;29;20455;-78
2022/11/16 17:16:12;;;;;;;0.50;0.10;;;12.60;99.90;;;;;;4943147;29;20495;-79
2022/11/16 17:18:40;;;;;;;0.60;0.10;;;12.60;99.90;;;;;;4937435;29;20444;-77
2022/11/16 17:21:09;;;;;;;0.60;0.20;;;12.60;99.90;;;;;;4941361;29;20452;-79
2022/11/16 17:23:37;;;;;;;0.60;0.10;;;12.70;99.90;;;;;;4948470;29;20460;-80
2022/11/16 17:26:07;;;;;;;0.50;0.10;;;12.60;99.90;;;;;;4957594;28;20483;-79
2022/11/16 17:28:35;;;;;;;0.50;0.10;;;12.60;99.90;;;;;;4954387;29;20456;-79